createdAt,value
2022-10-12T00:01:22.304Z,12.27
2022-10-12T00:03:51.175Z,12.24
2022-10-12T00:06:24.444Z,12.21
2022-10-12T00:08:55.241Z,12.26
2022-10-12T00:11:28.003Z,12.28
2022-10-12T00:13:57.858Z,12.29
2022-10-12T00:16:26.418Z,12.28
2022-10-12T00:18:57.193Z,12.26
2022-10-12T00:21:28.711Z,12.25
2022-10-12T00:23:58.932Z,12.19
2022-10-12T00:26:28.593Z,12.19
2022-10-12T00:28:58.934Z,12.12
2022-10-12T00:31:28.844Z,11.97
2022-10-12T00:34:01.293Z,11.93
2022-10-12T00:36:34.243Z,11.91
2022-10-12T00:39:04.119Z,11.89
2022-10-12T00:41:37.359Z,11.90
2022-10-12T00:44:06.459Z,11.91
2022-10-12T00:46:38.349Z,11.89
2022-10-12T00:49:14.056Z,11.85
2022-10-12T00:51:46.838Z,11.87
2022-10-12T00:54:21.443Z,11.84
2022-10-12T00:56:52.587Z,11.80
2022-10-12T00:59:26.863Z,11.77
2022-10-12T01:01:55.943Z,11.75
2022-10-12T01:04:25.345Z,11.73
2022-10-12T01:06:55.547Z,11.74
2022-10-12T01:09:24.558Z,11.72
2022-10-12T01:11:53.100Z,11.74
2022-10-12T01:14:22.108Z,11.74
2022-10-12T01:16:56.080Z,11.71
2022-10-12T01:19:52.587Z,11.68
2022-10-12T01:22:25.246Z,11.66
2022-10-12T01:25:00.437Z,11.65
2022-10-12T01:27:41.449Z,11.67
2022-10-12T01:30:15.977Z,11.67
2022-10-12T01:33:08.080Z,11.64
2022-10-12T01:35:43.905Z,11.63
2022-10-12T01:38:27.415Z,11.62
2022-10-12T01:41:03.574Z,11.64
2022-10-12T01:43:36.878Z,11.65
2022-10-12T01:46:24.440Z,11.63
2022-10-12T01:48:57.766Z,11.49
2022-10-12T01:51:37.001Z,11.61
2022-10-12T01:54:13.768Z,11.62
2022-10-12T01:56:49.545Z,11.61
2022-10-12T01:59:27.660Z,11.61
2022-10-12T02:02:04.430Z,11.64
2022-10-12T02:04:39.121Z,11.67
2022-10-12T02:07:13.938Z,11.64
2022-10-12T02:09:43.331Z,11.59
2022-10-12T02:12:15.590Z,11.58
2022-10-12T02:14:48.137Z,11.56
2022-10-12T02:17:22.608Z,11.55
2022-10-12T02:19:57.061Z,11.48
2022-10-12T02:22:30.947Z,11.21
2022-10-12T02:25:01.952Z,11.60
2022-10-12T02:27:32.579Z,11.53
2022-10-12T02:30:01.386Z,11.59
2022-10-12T02:32:39.226Z,11.54
2022-10-12T02:35:15.146Z,11.58
2022-10-12T02:37:49.238Z,11.56
2022-10-12T02:40:22.596Z,11.56
2022-10-12T02:43:09.830Z,11.56
2022-10-12T02:45:42.580Z,11.53
2022-10-12T02:48:17.768Z,11.54
2022-10-12T02:50:47.978Z,11.51
2022-10-12T02:53:18.331Z,11.53
2022-10-12T02:55:50.940Z,11.51
2022-10-12T02:58:20.026Z,11.44
2022-10-12T03:00:48.845Z,11.43
2022-10-12T03:03:19.267Z,11.42
2022-10-12T03:05:48.024Z,11.43
2022-10-12T03:08:16.538Z,11.42
2022-10-12T03:10:45.266Z,11.40
2022-10-12T03:13:13.927Z,11.33
2022-10-12T03:15:42.976Z,11.33
2022-10-12T03:18:11.588Z,11.35
2022-10-12T03:20:42.097Z,11.34
2022-10-12T03:23:10.927Z,11.32
2022-10-12T03:25:39.541Z,11.21
2022-10-12T03:28:08.246Z,11.28
2022-10-12T03:30:36.859Z,11.26
2022-10-12T03:33:05.599Z,11.24
2022-10-12T03:35:34.168Z,11.25
2022-10-12T03:38:04.461Z,11.25
2022-10-12T03:40:33.183Z,11.24
2022-10-12T03:43:01.817Z,11.23
2022-10-12T03:45:30.521Z,11.19
2022-10-12T03:48:04.489Z,11.17
2022-10-12T03:50:35.117Z,11.17
2022-10-12T03:53:06.711Z,11.13
2022-10-12T03:55:35.624Z,11.14
2022-10-12T03:58:04.091Z,11.15
2022-10-12T04:00:32.773Z,11.14
2022-10-12T04:03:02.422Z,11.11
2022-10-12T04:05:30.861Z,11.09
2022-10-12T04:07:59.702Z,11.01
2022-10-12T04:10:29.718Z,11.03
2022-10-12T04:12:59.252Z,11.03
2022-10-12T04:15:27.872Z,11.02
2022-10-12T04:17:56.481Z,11.01
2022-10-12T04:20:25.159Z,11.01
2022-10-12T04:22:53.817Z,10.99
2022-10-12T04:25:25.301Z,10.99
2022-10-12T04:27:57.836Z,10.98
2022-10-12T04:30:26.630Z,10.94
2022-10-12T04:32:55.198Z,10.81
2022-10-12T04:35:23.869Z,10.92
2022-10-12T04:37:52.588Z,10.87
2022-10-12T04:40:21.250Z,10.88
2022-10-12T04:42:49.905Z,10.89
2022-10-12T04:45:19.949Z,10.88
2022-10-12T04:47:48.583Z,10.85
2022-10-12T04:50:17.209Z,10.88
2022-10-12T04:52:45.887Z,10.90
2022-10-12T04:55:14.591Z,10.88
2022-10-12T04:57:44.211Z,10.91
2022-10-12T05:00:13.289Z,10.95
2022-10-12T05:02:43.458Z,10.95
2022-10-12T05:05:12.401Z,10.97
2022-10-12T05:07:41.719Z,10.95
2022-10-12T05:10:11.342Z,10.97
2022-10-12T05:12:40.300Z,11.01
2022-10-12T05:15:10.710Z,11.02
2022-10-12T05:17:39.772Z,11.05
2022-10-12T05:20:12.088Z,11.05
2022-10-12T05:22:40.972Z,11.05
2022-10-12T05:25:11.084Z,11.09
2022-10-12T05:27:40.015Z,11.14
2022-10-12T05:30:09.887Z,11.17
2022-10-12T05:32:39.005Z,11.18
2022-10-12T05:35:10.579Z,11.15
2022-10-12T05:37:39.556Z,11.11
2022-10-12T05:40:09.181Z,11.07
2022-10-12T05:42:38.030Z,11.10
2022-10-12T05:45:08.140Z,11.14
2022-10-12T05:47:36.630Z,11.16
2022-10-12T05:50:05.962Z,11.16
2022-10-12T05:52:36.555Z,11.17
2022-10-12T05:55:06.710Z,11.23
2022-10-12T05:57:35.200Z,11.28
2022-10-12T06:00:04.089Z,11.01
2022-10-12T06:02:39.316Z,11.38
2022-10-12T06:05:08.897Z,11.45
2022-10-12T06:07:39.371Z,11.38
2022-10-12T06:10:09.380Z,11.48
2022-10-12T06:12:38.183Z,11.47
2022-10-12T06:15:08.071Z,11.58
2022-10-12T06:17:36.953Z,11.60
2022-10-12T06:20:06.091Z,11.65
2022-10-12T06:22:34.635Z,11.66
2022-10-12T06:25:05.242Z,11.70
2022-10-12T06:27:35.022Z,11.72
2022-10-12T06:30:04.702Z,11.75
2022-10-12T06:32:36.391Z,11.80
2022-10-12T06:35:06.208Z,11.83
2022-10-12T06:37:49.499Z,11.80
2022-10-12T06:40:21.115Z,11.84
2022-10-12T06:42:52.707Z,11.91
2022-10-12T06:45:23.920Z,11.93
2022-10-12T06:47:52.459Z,11.96
2022-10-12T06:50:21.118Z,11.96
2022-10-12T06:52:50.024Z,12.00
2022-10-12T06:55:18.810Z,12.04
2022-10-12T06:57:48.841Z,12.11
2022-10-12T07:00:18.807Z,12.12
2022-10-12T07:02:50.881Z,12.15
2022-10-12T07:05:21.509Z,12.19
2022-10-12T07:07:50.100Z,12.23
2022-10-12T07:10:18.742Z,12.28
2022-10-12T07:12:49.314Z,12.29
2022-10-12T07:15:18.221Z,12.29
2022-10-12T07:17:46.755Z,12.32
2022-10-12T07:20:15.364Z,12.29
2022-10-12T07:22:44.689Z,12.31
2022-10-12T07:25:13.279Z,12.29
2022-10-12T07:27:42.081Z,12.33
2022-10-12T07:30:14.094Z,12.37
2022-10-12T07:32:44.756Z,12.35
2022-10-12T07:35:13.355Z,12.36
2022-10-12T07:37:42.156Z,12.39
2022-10-12T07:40:11.699Z,12.45
2022-10-12T07:42:59.196Z,12.54
2022-10-12T07:45:30.625Z,12.63
2022-10-12T07:47:59.118Z,12.75
2022-10-12T07:50:28.015Z,12.85
2022-10-12T07:52:56.733Z,12.71
2022-10-12T07:55:25.239Z,13.09
2022-10-12T07:57:53.756Z,13.19
2022-10-12T08:00:22.449Z,13.26
2022-10-12T08:02:56.297Z,13.28
2022-10-12T08:05:25.404Z,13.35
2022-10-12T08:07:55.254Z,13.42
2022-10-12T08:10:24.434Z,13.39
2022-10-12T08:12:53.107Z,13.47
2022-10-12T08:15:21.706Z,13.44
2022-10-12T08:17:51.565Z,13.58
2022-10-12T08:20:22.173Z,13.64
2022-10-12T08:22:50.706Z,13.75
2022-10-12T08:25:19.207Z,13.86
2022-10-12T08:27:47.865Z,13.94
2022-10-12T08:30:16.592Z,13.63
2022-10-12T08:32:45.137Z,13.94
2022-10-12T08:35:13.773Z,14.03
2022-10-12T08:37:43.868Z,14.05
2022-10-12T08:40:17.328Z,14.07
2022-10-12T08:42:54.454Z,14.20
2022-10-12T08:45:34.863Z,14.31
2022-10-12T08:48:10.987Z,14.51
2022-10-12T08:50:44.412Z,14.57
2022-10-12T08:53:19.455Z,14.64
2022-10-12T08:55:48.487Z,14.73
2022-10-12T08:58:20.795Z,14.92
2022-10-12T09:00:56.058Z,14.95
2022-10-12T09:03:44.301Z,15.01
2022-10-12T09:06:20.444Z,15.03
2022-10-12T09:09:06.690Z,15.05
2022-10-12T09:11:48.767Z,15.05
2022-10-12T09:14:21.167Z,15.07
2022-10-12T09:16:51.646Z,15.15
2022-10-12T09:19:22.897Z,15.22
2022-10-12T09:21:52.045Z,15.21
2022-10-12T09:24:26.186Z,15.17
2022-10-12T09:27:00.838Z,15.22
2022-10-12T09:29:32.344Z,15.25
2022-10-12T09:32:24.904Z,15.01
2022-10-12T09:34:53.526Z,15.27
2022-10-12T09:37:25.040Z,15.23
2022-10-12T09:39:55.871Z,15.41
2022-10-12T09:42:24.499Z,15.49
2022-10-12T09:45:02.835Z,15.61
2022-10-12T09:47:33.425Z,15.78
2022-10-12T09:50:04.316Z,15.96
2022-10-12T09:52:43.662Z,15.97
2022-10-12T09:55:28.361Z,16.01
2022-10-12T09:57:59.346Z,16.05
2022-10-12T10:00:31.066Z,15.99
2022-10-12T10:03:00.746Z,16.08
2022-10-12T10:05:30.215Z,16.05
2022-10-12T10:08:20.105Z,16.06
2022-10-12T10:10:54.748Z,16.12
2022-10-12T10:13:27.946Z,16.14
2022-10-12T10:16:06.072Z,16.19
2022-10-12T10:18:37.374Z,16.26
2022-10-12T10:21:09.364Z,16.34
2022-10-12T10:23:44.472Z,16.42
2022-10-12T10:28:48.990Z,16.51
2022-10-12T10:31:25.274Z,16.61
2022-10-12T10:34:12.762Z,16.66
2022-10-12T10:36:46.459Z,16.65
2022-10-12T10:39:23.736Z,16.67
2022-10-12T10:41:56.286Z,16.65
2022-10-12T10:44:34.991Z,16.62
2022-10-12T10:47:10.223Z,16.62
2022-10-12T10:49:44.409Z,16.65
2022-10-12T10:52:24.758Z,16.67
2022-10-12T10:55:16.486Z,16.61
2022-10-12T10:57:51.607Z,16.82
2022-10-12T11:00:40.199Z,16.89
2022-10-12T11:03:16.034Z,16.99
2022-10-12T11:05:50.073Z,17.06
2022-10-12T11:08:23.887Z,17.12
2022-10-12T11:10:58.034Z,17.17
2022-10-12T11:13:33.904Z,17.21
2022-10-12T11:16:09.948Z,17.21
2022-10-12T11:18:43.437Z,17.19
2022-10-12T11:21:17.095Z,17.17
2022-10-12T11:23:51.286Z,17.12
2022-10-12T11:26:26.966Z,17.17
2022-10-12T11:29:00.694Z,17.23
2022-10-12T11:31:34.264Z,17.27
2022-10-12T11:34:11.247Z,17.14
2022-10-12T11:37:14.340Z,17.28
2022-10-12T11:39:42.958Z,17.30
2022-10-12T11:42:21.908Z,17.41
2022-10-12T11:44:53.488Z,17.54
2022-10-12T11:47:32.475Z,17.65
2022-10-12T11:50:04.358Z,17.74
2022-10-12T11:52:39.777Z,17.76
2022-10-12T11:55:34.564Z,17.81
2022-10-12T11:58:13.329Z,17.79
2022-10-12T12:00:59.128Z,17.79
2022-10-12T12:03:35.411Z,17.79
2022-10-12T12:06:29.808Z,17.78
2022-10-12T12:08:59.530Z,17.76
2022-10-12T12:11:30.048Z,17.77
2022-10-12T12:14:24.565Z,17.75
2022-10-12T12:17:15.468Z,17.69
2022-10-12T12:19:45.916Z,17.75
2022-10-12T12:22:18.587Z,17.73
2022-10-12T12:24:56.649Z,17.79
2022-10-12T12:27:33.127Z,17.83
2022-10-12T12:30:03.401Z,17.88
2022-10-12T12:32:47.495Z,17.91
2022-10-12T12:35:26.999Z,17.97
2022-10-12T12:38:17.578Z,18.11
2022-10-12T12:41:08.133Z,18.27
2022-10-12T12:43:57.708Z,18.37
2022-10-12T12:46:38.977Z,18.49
2022-10-12T12:49:28.897Z,18.60
2022-10-12T12:52:00.080Z,18.77
2022-10-12T12:54:29.332Z,19.04
2022-10-12T12:57:27.879Z,19.19
2022-10-12T13:00:13.881Z,19.17
2022-10-12T13:03:09.278Z,19.18
2022-10-12T13:06:05.747Z,19.04
2022-10-12T13:08:52.160Z,18.92
2022-10-12T13:11:49.829Z,18.72
2022-10-12T13:14:37.467Z,18.64
2022-10-12T13:17:35.902Z,18.74
2022-10-12T13:20:18.364Z,18.67
2022-10-12T13:22:49.170Z,18.70
2022-10-12T13:25:29.087Z,18.81
2022-10-12T13:27:59.770Z,19.01
2022-10-12T13:30:36.049Z,18.92
2022-10-12T13:33:13.680Z,18.93
2022-10-12T13:35:49.610Z,18.87
2022-10-12T13:38:24.624Z,18.82
2022-10-12T13:41:02.928Z,18.78
2022-10-12T13:43:37.877Z,18.67
2022-10-12T13:46:07.489Z,18.65
2022-10-12T13:49:04.726Z,18.57
2022-10-12T13:51:27.628Z,18.50
2022-10-12T13:53:57.079Z,18.49
2022-10-12T13:56:29.751Z,18.47
2022-10-12T13:59:00.673Z,18.42
2022-10-12T14:01:29.484Z,18.38
2022-10-12T14:04:04.936Z,18.36
2022-10-12T14:06:38.501Z,18.37
2022-10-12T14:09:13.002Z,18.37
2022-10-12T14:11:45.270Z,18.36
2022-10-12T14:14:22.141Z,18.32
2022-10-12T14:16:54.751Z,18.24
2022-10-12T14:19:37.000Z,18.17
2022-10-12T14:22:05.781Z,18.14
2022-10-12T14:24:37.492Z,18.05
2022-10-12T14:27:09.891Z,17.96
2022-10-12T14:29:44.403Z,17.94
2022-10-12T14:32:37.470Z,17.87
2022-10-12T14:35:22.614Z,17.79
2022-10-12T14:37:53.450Z,17.76
2022-10-12T14:40:43.018Z,17.67
2022-10-12T14:43:24.657Z,17.63
2022-10-12T14:45:53.568Z,17.61
2022-10-12T14:48:24.180Z,17.56
2022-10-12T14:50:53.313Z,17.52
2022-10-12T14:53:22.799Z,17.48
2022-10-12T14:55:54.511Z,17.44
2022-10-12T14:58:24.732Z,17.41
2022-10-12T15:00:53.428Z,17.35
2022-10-12T15:03:22.089Z,17.37
2022-10-12T15:05:50.649Z,17.36
2022-10-12T15:08:20.425Z,17.33
2022-10-12T15:10:51.493Z,17.28
2022-10-12T15:13:19.998Z,17.26
2022-10-12T15:15:50.647Z,17.21
2022-10-12T15:18:19.309Z,17.15
2022-10-12T15:20:49.733Z,17.15
2022-10-12T15:23:19.145Z,17.13
2022-10-12T15:25:52.872Z,17.10
2022-10-12T15:28:21.808Z,17.01
2022-10-12T15:31:16.014Z,16.91
2022-10-12T15:33:41.962Z,16.82
2022-10-12T15:36:11.066Z,16.75
2022-10-12T15:38:39.951Z,16.68
2022-10-12T15:41:17.955Z,16.59
2022-10-12T15:43:46.516Z,16.53
2022-10-12T15:46:16.583Z,16.45
2022-10-12T15:48:45.339Z,16.35
2022-10-12T15:51:19.963Z,16.37
2022-10-12T15:53:48.693Z,16.32
2022-10-12T15:56:18.835Z,16.30
2022-10-12T15:58:47.535Z,16.26
2022-10-12T16:01:20.490Z,16.34
2022-10-12T16:03:50.043Z,16.35
2022-10-12T16:06:18.734Z,16.28
2022-10-12T16:08:47.411Z,16.24
2022-10-12T16:11:17.844Z,16.08
2022-10-12T16:13:52.579Z,16.06
2022-10-12T16:16:26.757Z,16.02
2022-10-12T16:18:55.631Z,15.99
2022-10-12T16:21:24.202Z,15.96
2022-10-12T16:23:52.890Z,15.88
2022-10-12T16:26:21.700Z,15.81
2022-10-12T16:28:50.489Z,15.70
2022-10-12T16:31:19.285Z,15.64
2022-10-12T16:33:49.441Z,15.57
2022-10-12T16:36:18.528Z,15.48
2022-10-12T16:38:47.163Z,15.38
2022-10-12T16:41:17.612Z,15.33
2022-10-12T16:43:47.378Z,15.29
2022-10-12T16:46:16.129Z,15.23
2022-10-12T16:48:45.341Z,15.12
2022-10-12T16:51:15.674Z,15.14
2022-10-12T16:53:44.313Z,14.98
2022-10-12T16:56:12.963Z,14.97
2022-10-12T16:58:41.724Z,14.97
2022-10-12T17:01:11.881Z,14.91
2022-10-12T17:03:41.179Z,14.88
2022-10-12T17:06:10.861Z,14.87
2022-10-12T17:08:40.820Z,14.85
2022-10-12T17:11:11.036Z,14.80
2022-10-12T17:13:42.282Z,14.72
2022-10-12T17:16:30.937Z,14.63
2022-10-12T17:18:59.891Z,14.59
2022-10-12T17:21:28.889Z,14.58
2022-10-12T17:24:00.146Z,14.51
2022-10-12T17:26:28.913Z,14.42
2022-10-12T17:28:57.550Z,14.30
2022-10-12T17:31:26.394Z,14.39
2022-10-12T17:33:54.974Z,14.33
2022-10-12T17:36:28.024Z,14.31
2022-10-12T17:39:00.490Z,14.24
2022-10-12T17:41:30.412Z,14.25
2022-10-12T17:43:59.359Z,14.26
2022-10-12T17:46:28.336Z,14.10
2022-10-12T17:48:57.539Z,14.39
2022-10-12T17:51:26.773Z,14.34
2022-10-12T17:53:55.526Z,14.28
2022-10-12T17:56:25.735Z,14.29
2022-10-12T17:58:55.885Z,14.29
2022-10-12T18:01:26.812Z,14.32
2022-10-12T18:03:55.604Z,14.33
2022-10-12T18:06:25.732Z,14.33
2022-10-12T18:08:55.284Z,14.35
2022-10-12T18:11:25.525Z,14.36
2022-10-12T18:13:56.176Z,14.38
2022-10-12T18:16:26.809Z,14.26
2022-10-12T18:18:55.934Z,14.30
2022-10-12T18:21:26.872Z,14.25
2022-10-12T18:23:56.005Z,14.17
2022-10-12T18:26:27.908Z,14.13
2022-10-12T18:28:56.960Z,14.06
2022-10-12T18:31:27.617Z,14.08
2022-10-12T18:33:57.428Z,14.05
2022-10-12T18:36:26.591Z,14.01
2022-10-12T18:38:55.635Z,14.04
2022-10-12T18:41:27.133Z,14.08
2022-10-12T18:43:58.170Z,14.08
2022-10-12T18:46:28.394Z,14.02
2022-10-12T18:48:57.167Z,14.01
2022-10-12T18:51:29.437Z,13.86
2022-10-12T18:53:59.643Z,14.01
2022-10-12T18:56:30.253Z,13.97
2022-10-12T18:59:00.424Z,13.99
2022-10-12T19:01:31.793Z,14.01
2022-10-12T19:04:02.528Z,14.00
2022-10-12T19:06:33.613Z,14.00
2022-10-12T19:09:02.596Z,13.92
2022-10-12T19:11:33.445Z,13.79
2022-10-12T19:14:03.623Z,13.67
2022-10-12T19:16:33.593Z,13.57
2022-10-12T19:19:04.254Z,13.50
2022-10-12T19:21:33.312Z,13.39
2022-10-12T19:24:04.331Z,13.34
2022-10-12T19:26:35.148Z,13.31
2022-10-12T19:29:04.203Z,13.24
2022-10-12T19:31:34.506Z,13.31
2022-10-12T19:34:06.814Z,13.33
2022-10-12T19:36:37.444Z,13.46
2022-10-12T19:39:09.593Z,13.51
2022-10-12T19:41:39.649Z,13.56
2022-10-12T19:44:08.803Z,13.59
2022-10-12T19:46:37.603Z,13.58
2022-10-12T19:49:06.245Z,13.58
2022-10-12T19:51:34.995Z,13.59
2022-10-12T19:54:05.719Z,13.59
2022-10-12T19:56:35.293Z,13.55
2022-10-12T19:59:05.397Z,13.60
2022-10-12T20:01:35.747Z,13.64
2022-10-12T20:04:07.493Z,13.57
2022-10-12T20:06:36.237Z,13.58
2022-10-12T20:09:06.485Z,13.62
2022-10-12T20:11:35.927Z,13.61
2022-10-12T20:14:06.601Z,13.62
2022-10-12T20:16:35.706Z,13.53
2022-10-12T20:19:05.160Z,13.56
2022-10-12T20:21:37.644Z,13.55
2022-10-12T20:24:09.654Z,13.53
2022-10-12T20:26:38.247Z,13.54
2022-10-12T20:29:08.225Z,13.53
2022-10-12T20:31:36.934Z,13.52
2022-10-12T20:34:05.513Z,13.51
2022-10-12T20:36:34.251Z,13.35
2022-10-12T20:39:02.821Z,13.47
2022-10-12T20:41:31.696Z,13.49
2022-10-12T20:44:01.924Z,13.44
2022-10-12T20:46:32.567Z,13.44
2022-10-12T20:49:02.439Z,13.43
2022-10-12T20:51:33.424Z,13.44
2022-10-12T20:54:04.375Z,13.43
2022-10-12T20:56:34.702Z,13.46
2022-10-12T20:59:03.828Z,13.40
2022-10-12T21:01:33.812Z,13.40
2022-10-12T21:04:02.613Z,13.39
2022-10-12T21:06:31.245Z,13.37
2022-10-12T21:08:59.883Z,13.40
2022-10-12T21:11:28.472Z,13.39
2022-10-12T21:13:57.284Z,13.36
2022-10-12T21:16:27.388Z,13.33
2022-10-12T21:18:57.615Z,13.34
2022-10-12T21:21:27.103Z,13.33
2022-10-12T21:23:57.358Z,13.21
2022-10-12T21:26:27.432Z,13.29
2022-10-12T21:28:56.414Z,13.27
2022-10-12T21:31:28.296Z,13.25
2022-10-12T21:34:03.475Z,13.25
2022-10-12T21:36:33.516Z,13.23
2022-10-12T21:39:02.262Z,13.11
2022-10-12T21:41:31.834Z,13.20
2022-10-12T21:44:00.335Z,13.20
2022-10-12T21:46:31.673Z,13.13
2022-10-12T21:49:02.554Z,13.13
2022-10-12T21:51:33.186Z,13.08
2022-10-12T21:54:01.845Z,13.03
2022-10-12T21:56:32.349Z,13.00
2022-10-12T21:59:03.236Z,13.01
2022-10-12T22:01:34.833Z,12.96
2022-10-12T22:04:06.819Z,12.94
2022-10-12T22:06:35.966Z,12.90
2022-10-12T22:09:08.516Z,12.91
2022-10-12T22:11:38.621Z,12.83
2022-10-12T22:14:14.115Z,12.78
2022-10-12T22:16:43.636Z,12.75
2022-10-12T22:19:19.364Z,12.75
2022-10-12T22:21:49.740Z,12.75
2022-10-12T22:24:18.742Z,12.77
2022-10-12T22:26:48.835Z,12.75
2022-10-12T22:29:17.804Z,12.72
2022-10-12T22:31:46.602Z,12.67
2022-10-12T22:34:18.475Z,12.70
2022-10-12T22:36:47.394Z,12.71
2022-10-12T22:39:21.874Z,12.67
2022-10-12T22:41:50.561Z,12.64
2022-10-12T22:44:19.154Z,12.62
2022-10-12T22:46:47.853Z,12.59
2022-10-12T22:49:17.932Z,12.57
2022-10-12T22:51:46.776Z,12.60
2022-10-12T22:54:15.708Z,12.60
2022-10-12T22:56:44.796Z,12.48
2022-10-12T22:59:15.718Z,12.59
2022-10-12T23:01:45.095Z,12.52
2022-10-12T23:04:14.415Z,12.57
2022-10-12T23:06:44.435Z,12.55
2022-10-12T23:09:13.545Z,12.56
2022-10-12T23:11:43.419Z,12.55
2022-10-12T23:14:12.617Z,12.51
2022-10-12T23:16:41.240Z,12.48
2022-10-12T23:19:11.614Z,12.50
2022-10-12T23:21:40.294Z,12.48
2022-10-12T23:24:11.406Z,12.47
2022-10-12T23:26:40.071Z,12.42
2022-10-12T23:29:08.589Z,12.40
2022-10-12T23:31:37.132Z,12.31
2022-10-12T23:34:08.163Z,12.33
2022-10-12T23:36:36.836Z,12.27
2022-10-12T23:39:06.731Z,12.22
2022-10-12T23:41:36.843Z,12.22
2022-10-12T23:44:05.855Z,12.18
2022-10-12T23:46:34.752Z,12.08
2022-10-12T23:49:03.461Z,12.12
2022-10-12T23:51:32.085Z,12.05
2022-10-12T23:54:00.763Z,11.93
2022-10-12T23:56:29.605Z,12.01
2022-10-12T23:59:04.134Z,11.99
